Perrysburg, OH

4:58 AM EDT on October 01, 2014 (GMT -0400)
Fighting Yellow Jackets | Change Station
CLOSE
Current Station
Personal Weather Station
Location: Perrysburg, OH
Elevation: 643 ft
Nearby Weather Stations

Elev 643 ft 41.55 °N, 83.63 °W | Updated 2 minutes ago

Overcast
Overcast
49.0 °F
Feels Like 49 °F
N
0.0
Wind Variable Wind from NW
Gusts 0.0 mph

Today
High -- | Low -- °F
--% Chance of Precip.
Yesterday
High -- | Low -- °F
Precip. -- in
7:31 AM 7:16 PM
Waxing Crescent, 45% visible
Pressure 30.03 in
Visibility 10.0 miles
Clouds Few 2100 ft
Overcast 3900 ft
Windchill 49 °F
Dew Point 47 °F
Humidity 92%
Rainfall 0.00 in
Snow Depth Not available.
UV 0 out of 12
Pollen 2.10 out of 12
Air Quality Not available.
Flu Activity Not available.
METAR KTDZ 010753Z AUTO 01005KT 10SM FEW021 OVC039 11/09 A3002 RMK AO2 SLP167 T01110089 TSNO

More Conditions Fewer Conditions

Pressure 30.03 in
Visibility 10.0 miles
Clouds Few 2100 ft
Overcast 3900 ft
Windchill 49 °F
Dew Point 47 °F
Humidity 92%
Rainfall 0.00 in
Snow Depth Not available.
UV 0 out of 12
Pollen 2.10 out of 12
Air Quality Not available.
Flu Activity Not available.
METAR KTDZ 010753Z AUTO 01005KT 10SM FEW021 OVC039 11/09 A3002 RMK AO2 SLP167 T01110089 TSNO

More Conditions Fewer Conditions

10-Day Weather Forecast

Almanac

Astronomy

Oct. 01, 2014 Rise Set
Actual Time 7:31 AM EDT 7:16 PM EDT
Civil Twilight 7:03 AM EDT 7:43 PM EDT
Nautical Twilight 6:31 AM EDT 8:16 PM EDT
Astronomical Twilight 5:59 AM EDT 8:48 PM EDT
Moon 2:34 PM EDT No Moon Set
Length of Visible Light 12h 40m
Length of Day
11h 44m
Tomorrow will be 2m 46s shorter.
Waxing Crescent, 45% of the Moon is Illuminated
Today
Waxing Crescent
Oct 1
First Quarter
Oct 8
Full
Oct 15
Last Quarter
Oct 23
New

Today's Extremes

State Highs State Lows

Community

WunderPhotos

Upload Photos

1,757,902 photos uploaded!

Nearby

Snow Depth

Station Depth Elevation
No new snow has been reported.

Earthquake Activity

City Distance Mag. Time & Date
No recent earthquake activity has been reported nearby.
Minimum magnitude displayed is 2.5.

Coastal Water Temperatures

Place Temperature
Marblehead, OH 64.0 °F

Nearby Weather Stations